GLO1493 SBGO-SBGR
Flight info
| Callsign | GLO1493 |
|---|---|
| Flight time | N/A |
| Altitude | 36000 |
| Route | ESBOD DCT UPONA DCT OBLUG DCT ZARES |
| Aircraft | B738/M-SDE2E3FGHIRWXY/LB1 |
Departure
| Time | 2026-05-05 16:55 |
|---|---|
| Airport | Santa Genoveva International Airport (SBGO) |
Arrival
| Time | N/A |
|---|---|
| Airport | São Paulo/Guarulhos–Governor André Franco Montoro International Airport (SBGR) |
| Time | Latitude | Longitude | Altitude | Speed | Heading |
|---|---|---|---|---|---|
| 2026-05-05 16:35 | -16.63195 | -49.22578 | 2469 ft | 0 kts | 242° |
| 2026-05-05 16:47 | -16.63190 | -49.22567 | 2469 ft | 2 kts | 242° |
| 2026-05-05 16:47 | -16.63182 | -49.22553 | 2469 ft | 2 kts | 242° |
| 2026-05-05 16:47 | -16.63175 | -49.22539 | 2469 ft | 2 kts | 261° |
| 2026-05-05 16:47 | -16.63178 | -49.22524 | 2469 ft | 2 kts | 303° |
| 2026-05-05 16:48 | -16.63183 | -49.22517 | 2469 ft | 1 kts | 306° |
| 2026-05-05 16:48 | -16.63184 | -49.22516 | 2469 ft | 0 kts | 306° |
| 2026-05-05 16:51 | -16.63167 | -49.22542 | 2469 ft | 8 kts | 303° |
| 2026-05-05 16:51 | -16.63135 | -49.22598 | 2469 ft | 9 kts | 300° |
| 2026-05-05 16:51 | -16.63100 | -49.22664 | 2469 ft | 10 kts | 298° |
| 2026-05-05 16:51 | -16.63061 | -49.22737 | 2469 ft | 12 kts | 299° |
| 2026-05-05 16:52 | -16.63017 | -49.22815 | 2469 ft | 13 kts | 300° |
| 2026-05-05 16:52 | -16.62969 | -49.22901 | 2469 ft | 14 kts | 300° |
| 2026-05-05 16:52 | -16.62918 | -49.22993 | 2469 ft | 15 kts | 299° |
| 2026-05-05 16:52 | -16.62856 | -49.23079 | 2469 ft | 13 kts | 331° |
| 2026-05-05 16:53 | -16.62763 | -49.23109 | 2469 ft | 13 kts | 345° |
| 2026-05-05 16:53 | -16.62678 | -49.23130 | 2469 ft | 11 kts | 360° |
| 2026-05-05 16:53 | -16.62647 | -49.23092 | 2469 ft | 6 kts | 100° |
| 2026-05-05 16:53 | -16.62678 | -49.23030 | 2469 ft | 15 kts | 120° |
| 2026-05-05 16:54 | -16.62824 | -49.22774 | 2469 ft | 76 kts | 122° |
| 2026-05-05 16:54 | -16.63205 | -49.22088 | 2469 ft | 139 kts | 121° |
| 2026-05-05 16:54 | -16.63793 | -49.21068 | 2517 ft | 183 kts | 120° |
| 2026-05-05 16:54 | -16.64477 | -49.19898 | 3018 ft | 194 kts | 122° |
| 2026-05-05 16:55 | -16.65112 | -49.18717 | 3959 ft | 182 kts | 116° |
| 2026-05-05 16:55 | -16.65637 | -49.17571 | 4511 ft | 180 kts | 116° |
| 2026-05-05 16:55 | -16.66298 | -49.16364 | 4596 ft | 202 kts | 123° |
| 2026-05-05 16:55 | -16.67233 | -49.15284 | 5135 ft | 198 kts | 139° |
| 2026-05-05 16:56 | -16.68444 | -49.14577 | 5359 ft | 215 kts | 165° |
| 2026-05-05 16:56 | -16.69999 | -49.14701 | 5573 ft | 240 kts | 200° |
| 2026-05-05 16:56 | -16.71420 | -49.15748 | 6009 ft | 265 kts | 230° |
| 2026-05-05 16:56 | -16.72407 | -49.17436 | 6609 ft | 279 kts | 242° |
| 2026-05-05 16:57 | -16.73391 | -49.19204 | 6941 ft | 289 kts | 227° |
| 2026-05-05 16:57 | -16.75033 | -49.20460 | 7202 ft | 300 kts | 199° |
| 2026-05-05 16:57 | -16.76980 | -49.21068 | 8342 ft | 288 kts | 192° |
| 2026-05-05 16:57 | -16.78929 | -49.21594 | 9174 ft | 292 kts | 193° |
| 2026-05-05 16:58 | -16.80858 | -49.22195 | 10027 ft | 295 kts | 195° |
| 2026-05-05 16:58 | -16.82800 | -49.22888 | 10881 ft | 296 kts | 197° |
| 2026-05-05 16:58 | -16.84734 | -49.23621 | 11732 ft | 296 kts | 197° |
| 2026-05-05 16:58 | -16.86731 | -49.24196 | 12310 ft | 304 kts | 185° |
| 2026-05-05 16:59 | -16.88884 | -49.24062 | 12697 ft | 316 kts | 163° |
| 2026-05-05 16:59 | -16.90995 | -49.23323 | 13090 ft | 330 kts | 157° |
| 2026-05-05 16:59 | -16.93197 | -49.22397 | 13492 ft | 345 kts | 156° |
| 2026-05-05 16:59 | -16.95484 | -49.21434 | 13827 ft | 361 kts | 157° |
| 2026-05-05 17:00 | -16.97860 | -49.20477 | 14254 ft | 374 kts | 159° |
| 2026-05-05 17:00 | -17.00309 | -49.19530 | 14883 ft | 379 kts | 159° |
| 2026-05-05 17:00 | -17.02815 | -49.18583 | 15628 ft | 381 kts | 160° |
| 2026-05-05 17:00 | -17.05324 | -49.17643 | 16262 ft | 385 kts | 160° |
| 2026-05-05 17:01 | -17.07829 | -49.16707 | 17002 ft | 386 kts | 161° |
| 2026-05-05 17:01 | -17.10369 | -49.15756 | 17598 ft | 390 kts | 161° |
| 2026-05-05 17:01 | -17.12938 | -49.14793 | 18228 ft | 393 kts | 161° |
| 2026-05-05 17:01 | -17.15532 | -49.13819 | 18806 ft | 398 kts | 161° |
| 2026-05-05 17:02 | -17.18160 | -49.12830 | 19403 ft | 401 kts | 161° |
| 2026-05-05 17:02 | -17.20771 | -49.11848 | 19978 ft | 404 kts | 161° |
| 2026-05-05 17:02 | -17.23458 | -49.10836 | 20600 ft | 407 kts | 161° |
| 2026-05-05 17:02 | -17.26136 | -49.09849 | 21145 ft | 410 kts | 162° |
| 2026-05-05 17:03 | -17.28873 | -49.08972 | 21671 ft | 413 kts | 166° |
| 2026-05-05 17:03 | -17.31686 | -49.08396 | 22264 ft | 414 kts | 173° |
| 2026-05-05 17:03 | -17.34553 | -49.08078 | 22799 ft | 417 kts | 176° |
| 2026-05-05 17:03 | -17.37458 | -49.07900 | 23310 ft | 420 kts | 178° |
| 2026-05-05 17:04 | -17.40392 | -49.07784 | 23837 ft | 422 kts | 179° |
| 2026-05-05 17:04 | -17.43340 | -49.07690 | 24350 ft | 425 kts | 179° |
| 2026-05-05 17:04 | -17.46338 | -49.07595 | 24855 ft | 427 kts | 180° |
| 2026-05-05 17:04 | -17.49309 | -49.07495 | 25409 ft | 428 kts | 180° |
| 2026-05-05 17:05 | -17.52289 | -49.07387 | 25842 ft | 432 kts | 180° |
| 2026-05-05 17:05 | -17.55298 | -49.07271 | 26373 ft | 433 kts | 180° |
| 2026-05-05 17:05 | -17.58330 | -49.07148 | 26800 ft | 436 kts | 180° |
| 2026-05-05 17:05 | -17.61372 | -49.07020 | 27263 ft | 439 kts | 180° |
| 2026-05-05 17:06 | -17.64437 | -49.06889 | 27696 ft | 441 kts | 180° |
| 2026-05-05 17:06 | -17.67548 | -49.06754 | 28097 ft | 445 kts | 180° |
| 2026-05-05 17:06 | -17.70641 | -49.06620 | 28580 ft | 445 kts | 180° |
| 2026-05-05 17:06 | -17.73762 | -49.06483 | 28937 ft | 449 kts | 181° |
| 2026-05-05 17:07 | -17.76858 | -49.06347 | 29412 ft | 449 kts | 181° |
| 2026-05-05 17:07 | -17.80009 | -49.06206 | 30009 ft | 446 kts | 181° |
| 2026-05-05 17:07 | -17.83073 | -49.06068 | 30726 ft | 440 kts | 181° |
| 2026-05-05 17:07 | -17.86086 | -49.05930 | 31618 ft | 429 kts | 181° |
| 2026-05-05 17:08 | -17.89024 | -49.05794 | 32464 ft | 418 kts | 181° |
| 2026-05-05 17:08 | -17.91892 | -49.05664 | 33188 ft | 411 kts | 182° |
| 2026-05-05 17:08 | -17.94737 | -49.05536 | 33754 ft | 408 kts | 182° |
| 2026-05-05 17:08 | -17.97599 | -49.05411 | 34164 ft | 407 kts | 182° |
| 2026-05-05 17:09 | -18.00438 | -49.05288 | 34498 ft | 408 kts | 182° |
| 2026-05-05 17:09 | -18.03272 | -49.05165 | 34842 ft | 409 kts | 182° |
| 2026-05-05 17:09 | -18.06133 | -49.05040 | 35178 ft | 409 kts | 182° |
| 2026-05-05 17:09 | -18.08966 | -49.04915 | 35578 ft | 408 kts | 182° |
| 2026-05-05 17:10 | -18.11823 | -49.04787 | 36048 ft | 405 kts | 182° |
| 2026-05-05 17:10 | -18.14638 | -49.04663 | 36179 ft | 407 kts | 182° |
| 2026-05-05 17:10 | -18.20297 | -49.04416 | 36178 ft | 407 kts | 182° |
| 2026-05-05 17:11 | -18.25934 | -49.04165 | 36178 ft | 404 kts | 182° |
| 2026-05-05 17:11 | -18.31591 | -49.03915 | 36176 ft | 406 kts | 182° |
| 2026-05-05 17:12 | -18.37209 | -49.03666 | 36169 ft | 404 kts | 182° |
| 2026-05-05 17:12 | -18.42848 | -49.03415 | 36168 ft | 405 kts | 182° |
| 2026-05-05 17:13 | -18.48497 | -49.03165 | 36170 ft | 405 kts | 183° |
| 2026-05-05 17:13 | -18.54113 | -49.02913 | 36172 ft | 403 kts | 182° |
| 2026-05-05 17:14 | -18.59739 | -49.02661 | 36179 ft | 405 kts | 182° |
| 2026-05-05 17:14 | -18.65390 | -49.02408 | 36178 ft | 403 kts | 182° |
| 2026-05-05 17:15 | -18.71017 | -49.02156 | 36184 ft | 403 kts | 183° |
| 2026-05-05 17:15 | -18.76628 | -49.01906 | 36183 ft | 405 kts | 182° |
| 2026-05-05 17:16 | -18.82250 | -49.01654 | 36185 ft | 405 kts | 183° |
| 2026-05-05 17:16 | -18.87876 | -49.01401 | 36184 ft | 403 kts | 183° |
| 2026-05-05 17:17 | -18.93500 | -49.01149 | 36187 ft | 403 kts | 183° |
| 2026-05-05 17:17 | -18.99111 | -49.00896 | 36187 ft | 403 kts | 183° |
| 2026-05-05 17:18 | -19.04707 | -49.00645 | 36182 ft | 402 kts | 183° |
| 2026-05-05 17:18 | -19.10309 | -49.00393 | 36172 ft | 402 kts | 183° |
| 2026-05-05 17:19 | -19.15888 | -49.00142 | 36170 ft | 402 kts | 183° |
| 2026-05-05 17:19 | -19.21505 | -48.99889 | 36170 ft | 402 kts | 183° |
| 2026-05-05 17:20 | -19.27087 | -48.99638 | 36174 ft | 402 kts | 183° |
| 2026-05-05 17:20 | -19.32677 | -48.99387 | 36170 ft | 402 kts | 183° |
| 2026-05-05 17:21 | -19.38259 | -48.99135 | 36167 ft | 402 kts | 183° |
| 2026-05-05 17:22 | -19.46689 | -48.98753 | 36167 ft | 402 kts | 183° |
| 2026-05-05 17:22 | -19.52292 | -48.98499 | 36168 ft | 402 kts | 183° |
| 2026-05-05 17:23 | -19.57884 | -48.98245 | 36160 ft | 401 kts | 182° |
| 2026-05-05 17:23 | -19.63491 | -48.97993 | 36162 ft | 403 kts | 183° |
| 2026-05-05 17:24 | -19.69085 | -48.97741 | 36168 ft | 402 kts | 183° |
| 2026-05-05 17:24 | -19.74682 | -48.97487 | 36164 ft | 401 kts | 183° |
| 2026-05-05 17:25 | -19.80258 | -48.97234 | 36161 ft | 401 kts | 183° |
| 2026-05-05 17:25 | -19.85836 | -48.96980 | 36163 ft | 400 kts | 183° |
| 2026-05-05 17:26 | -19.91425 | -48.96727 | 36157 ft | 401 kts | 183° |
| 2026-05-05 17:26 | -19.97008 | -48.96475 | 36153 ft | 403 kts | 183° |
| 2026-05-05 17:27 | -20.02631 | -48.96217 | 36155 ft | 403 kts | 183° |
| 2026-05-05 17:27 | -20.08248 | -48.95962 | 36148 ft | 404 kts | 183° |
| 2026-05-05 17:28 | -20.13843 | -48.95707 | 36145 ft | 402 kts | 183° |
| 2026-05-05 17:28 | -20.19444 | -48.95451 | 36142 ft | 402 kts | 183° |
| 2026-05-05 17:29 | -20.25074 | -48.95195 | 36137 ft | 404 kts | 183° |
| 2026-05-05 17:29 | -20.30711 | -48.94939 | 36142 ft | 404 kts | 183° |
| 2026-05-05 17:30 | -20.36292 | -48.94681 | 36140 ft | 402 kts | 183° |
| 2026-05-05 17:30 | -20.41952 | -48.94426 | 36142 ft | 406 kts | 183° |
| 2026-05-05 17:31 | -20.47594 | -48.94167 | 36143 ft | 405 kts | 183° |
| 2026-05-05 17:31 | -20.53189 | -48.93909 | 36145 ft | 403 kts | 182° |
| 2026-05-05 17:32 | -20.58807 | -48.93651 | 36145 ft | 404 kts | 183° |
| 2026-05-05 17:32 | -20.64421 | -48.93390 | 36145 ft | 402 kts | 183° |
| 2026-05-05 17:33 | -20.70042 | -48.93133 | 36146 ft | 403 kts | 183° |
| 2026-05-05 17:33 | -20.75647 | -48.92878 | 36145 ft | 404 kts | 183° |
| 2026-05-05 17:34 | -20.81285 | -48.92620 | 36147 ft | 404 kts | 183° |
| 2026-05-05 17:34 | -20.86898 | -48.92361 | 36150 ft | 403 kts | 183° |
| 2026-05-05 17:35 | -20.92519 | -48.92101 | 36148 ft | 403 kts | 183° |
| 2026-05-05 17:35 | -20.98151 | -48.91843 | 36152 ft | 406 kts | 183° |
| 2026-05-05 17:36 | -21.03780 | -48.91582 | 36152 ft | 403 kts | 182° |
| 2026-05-05 17:36 | -21.09405 | -48.91323 | 36152 ft | 405 kts | 183° |
| 2026-05-05 17:37 | -21.15041 | -48.91064 | 36147 ft | 405 kts | 182° |
| 2026-05-05 17:37 | -21.20673 | -48.90600 | 36147 ft | 408 kts | 178° |
| 2026-05-05 17:38 | -21.26291 | -48.89258 | 36149 ft | 416 kts | 171° |
| 2026-05-05 17:38 | -21.31854 | -48.87491 | 36150 ft | 414 kts | 169° |
| 2026-05-05 17:39 | -21.37390 | -48.85676 | 36152 ft | 417 kts | 170° |
| 2026-05-05 17:39 | -21.42951 | -48.83878 | 36148 ft | 416 kts | 170° |
| 2026-05-05 17:40 | -21.48530 | -48.82086 | 36150 ft | 418 kts | 170° |
| 2026-05-05 17:40 | -21.54064 | -48.80315 | 36148 ft | 414 kts | 170° |
| 2026-05-05 17:41 | -21.59602 | -48.78551 | 36149 ft | 416 kts | 170° |
| 2026-05-05 17:41 | -21.65150 | -48.76783 | 36149 ft | 417 kts | 171° |
| 2026-05-05 17:42 | -21.70743 | -48.74996 | 36149 ft | 417 kts | 170° |
| 2026-05-05 17:42 | -21.76309 | -48.73217 | 36147 ft | 416 kts | 170° |
| 2026-05-05 17:43 | -21.81848 | -48.71444 | 36150 ft | 416 kts | 170° |
| 2026-05-05 17:43 | -21.87440 | -48.69655 | 36147 ft | 417 kts | 170° |
| 2026-05-05 17:44 | -21.93005 | -48.67870 | 36151 ft | 417 kts | 170° |
| 2026-05-05 17:44 | -21.98557 | -48.66090 | 36148 ft | 417 kts | 170° |
| 2026-05-05 17:45 | -22.04126 | -48.64302 | 36150 ft | 416 kts | 170° |
| 2026-05-05 17:45 | -22.09695 | -48.62514 | 36157 ft | 418 kts | 170° |
| 2026-05-05 17:46 | -22.15255 | -48.60724 | 36155 ft | 416 kts | 170° |
| 2026-05-05 17:46 | -22.19921 | -48.59224 | 36162 ft | 418 kts | 170° |